Time;durP1;ratioP1;P1;durP2;ratioP2;P2;SDS_P1;SDS_P2;PMS_P1;PMS_P2;Temp;Humidity;BMP_temperature;BMP_pressure;BME280_temperature;BME280_humidity;BME280_pressure;Samples;Min_cycle;Max_cycle;Signal;HPM_P1;HPM_P2
2023/01/22 00:01:15;;;;;;;1.50;1.10;;;1.30;99.90;1.00;101317.00;;;;4780886;29;105766;-71
2023/01/22 00:03:41;;;;;;;1.23;1.17;;;1.30;99.90;1.00;101318.00;;;;4782612;29;87781;-70
2023/01/22 00:06:09;;;;;;;1.10;1.00;;;1.30;99.90;1.00;101321.00;;;;4780068;29;89226;-70
2023/01/22 00:08:35;;;;;;;1.13;0.80;;;1.30;99.90;1.00;101323.00;;;;4779359;29;109330;-70
2023/01/22 00:11:01;;;;;;;1.77;1.07;;;1.30;99.90;1.00;101319.00;;;;4780878;29;104547;-69
2023/01/22 00:13:27;;;;;;;1.60;0.90;;;1.30;99.90;1.00;101319.00;;;;4781458;29;87842;-73
2023/01/22 00:15:57;;;;;;;1.27;1.17;;;1.30;99.90;1.00;101321.00;;;;4782323;29;89085;-70
2023/01/22 00:18:23;;;;;;;0.90;0.90;;;1.30;99.90;1.00;101321.00;;;;4781311;29;88414;-70
2023/01/22 00:20:51;;;;;;;1.03;1.00;;;1.30;99.90;1.00;101307.00;;;;4778924;29;109647;-72
2023/01/22 00:23:16;;;;;;;1.60;0.90;;;1.30;99.90;1.00;101324.00;;;;4792331;29;87970;-67
2023/01/22 00:25:42;;;;;;;1.30;1.20;;;1.40;99.90;1.00;101320.00;;;;4781395;29;104683;-69
2023/01/22 00:28:09;;;;;;;1.20;1.13;;;1.20;99.90;1.00;101313.00;;;;4779653;29;89421;-70
2023/01/22 00:30:34;;;;;;;2.70;1.20;;;1.40;99.90;1.00;101315.00;;;;4774984;29;103753;-70
2023/01/22 00:33:00;;;;;;;0.60;0.60;;;1.20;99.90;1.00;101329.00;;;;4783917;29;109962;-67
2023/01/22 00:35:26;;;;;;;1.20;1.10;;;1.30;99.90;0.90;101326.00;;;;4780217;29;119523;-69
2023/01/22 00:37:51;;;;;;;1.07;0.93;;;1.30;99.90;1.00;101319.00;;;;4777004;29;116829;-69
2023/01/22 00:40:17;;;;;;;1.20;1.10;;;1.30;99.90;0.90;101336.00;;;;4780354;29;109556;-68
2023/01/22 00:42:43;;;;;;;1.57;1.20;;;1.30;99.90;0.90;101329.00;;;;4779364;29;88698;-68
2023/01/22 00:45:12;;;;;;;1.10;1.00;;;1.30;99.90;0.90;101330.00;;;;4776578;29;117877;-68
2023/01/22 00:47:37;;;;;;;1.37;0.50;;;1.30;99.90;0.90;101337.00;;;;4795803;29;88834;-70
2023/01/22 00:50:03;;;;;;;3.43;1.77;;;1.20;99.90;0.90;101343.00;;;;4782235;29;111771;-68
2023/01/22 00:52:29;;;;;;;0.70;0.70;;;1.20;99.90;1.00;101350.00;;;;4780528;29;92320;-70
2023/01/22 00:54:55;;;;;;;1.23;1.13;;;1.20;99.90;0.90;101338.00;;;;4781046;29;116834;-70
2023/01/22 00:57:20;;;;;;;1.10;1.00;;;1.30;99.90;0.90;101331.00;;;;4781265;29;116879;-70
2023/01/22 00:59:51;;;;;;;1.20;0.90;;;1.30;99.90;0.90;101341.00;;;;4782482;29;95958;-70
2023/01/22 01:02:17;;;;;;;2.20;0.97;;;2.30;99.90;0.90;101339.00;;;;4780709;29;87948;-69
2023/01/22 01:04:43;;;;;;;1.23;1.00;;;1.20;99.90;0.90;101356.00;;;;4779196;29;118073;-69
2023/01/22 01:07:08;;;;;;;1.27;0.70;;;1.20;99.90;0.90;101345.00;;;;4781148;29;116804;-70
2023/01/22 01:09:34;;;;;;;0.70;0.70;;;1.20;99.90;0.90;101340.00;;;;4782547;29;110085;-68
2023/01/22 01:12:00;;;;;;;1.03;0.93;;;1.30;99.90;0.90;101344.00;;;;4780901;29;108291;-68
2023/01/22 01:14:26;;;;;;;2.50;1.07;;;1.30;99.90;0.90;101361.00;;;;4784880;29;90160;-66
2023/01/22 01:16:52;;;;;;;2.87;0.93;;;1.20;99.90;0.90;101359.00;;;;4785476;29;89519;-68
2023/01/22 01:19:21;;;;;;;0.93;0.90;;;1.20;99.90;0.90;101343.00;;;;4786237;29;100411;-66
2023/01/22 01:21:47;;;;;;;1.40;1.30;;;1.30;99.90;0.90;101341.00;;;;4785924;29;87850;-66
2023/01/22 01:24:13;;;;;;;0.87;0.87;;;1.20;99.90;0.90;101350.00;;;;4780444;29;116008;-67
2023/01/22 01:26:40;;;;;;;0.80;0.70;;;1.30;99.90;0.90;101349.00;;;;4785390;29;114299;-68
2023/01/22 01:29:08;;;;;;;1.70;1.60;;;2.10;99.90;0.90;101349.00;;;;4785550;29;88248;-68
2023/01/22 01:31:36;;;;;;;1.83;1.70;;;1.20;99.90;0.90;101341.00;;;;4796508;29;88361;-66
2023/01/22 01:34:02;;;;;;;2.87;1.40;;;1.20;99.90;0.90;101347.00;;;;4783204;29;88954;-68
2023/01/22 01:36:29;;;;;;;1.70;1.13;;;1.30;99.90;0.90;101352.00;;;;4782762;29;117279;-69
2023/01/22 01:38:55;;;;;;;1.50;1.30;;;1.30;99.90;0.90;101338.00;;;;4785974;29;88891;-68
2023/01/22 01:41:25;;;;;;;2.23;1.40;;;1.20;99.90;0.90;101343.00;;;;4781021;29;87934;-70
2023/01/22 01:44:12;;;;;;;1.67;1.47;;;1.30;99.90;0.90;101339.00;;;;4794520;29;95657;-68
2023/01/22 01:47:00;;;;;;;1.60;1.20;;;1.20;99.90;0.90;101327.00;;;;4783013;29;87961;-70
2023/01/22 01:49:32;;;;;;;2.03;1.50;;;2.40;99.90;0.90;101332.00;;;;4794343;29;87828;-69
2023/01/22 01:52:10;;;;;;;1.57;1.47;;;1.20;99.90;0.90;101338.00;;;;4783965;29;87949;-68
2023/01/22 01:54:38;;;;;;;1.77;1.60;;;1.20;99.90;0.90;101338.00;;;;4783242;29;88398;-69
2023/01/22 01:57:17;;;;;;;2.17;1.23;;;1.20;99.90;0.90;101342.00;;;;4783826;29;104700;-70
2023/01/22 01:59:46;;;;;;;2.40;1.50;;;1.20;99.90;0.90;101348.00;;;;4783163;29;98741;-69
2023/01/22 02:02:11;;;;;;;2.73;1.60;;;1.20;99.90;0.90;101355.00;;;;4797258;29;108647;-70
2023/01/22 02:04:37;;;;;;;1.73;1.63;;;1.20;99.90;0.90;101355.00;;;;4782951;29;120411;-69
2023/01/22 02:07:04;;;;;;;1.90;1.37;;;1.20;99.90;0.90;101359.00;;;;4785766;29;89824;-69
2023/01/22 02:09:30;;;;;;;1.63;1.30;;;1.20;99.90;0.90;101356.00;;;;4795555;29;111592;-69
2023/01/22 02:11:56;;;;;;;1.63;1.53;;;1.20;99.90;0.90;101362.00;;;;4784096;29;106573;-69
2023/01/22 02:14:29;;;;;;;2.80;1.97;;;1.30;99.90;0.90;101363.00;;;;4782216;29;89309;-69
2023/01/22 02:17:19;;;;;;;1.87;1.40;;;1.30;99.90;0.90;101345.00;;;;4779620;29;110092;-69
2023/01/22 02:19:44;;;;;;;1.47;1.27;;;1.20;99.90;0.90;101347.00;;;;4763451;29;87863;-70
2023/01/22 02:22:22;;;;;;;3.23;1.77;;;1.20;99.90;0.90;101367.00;;;;4782471;29;86843;-69
2023/01/22 02:24:48;;;;;;;2.43;1.90;;;1.20;99.90;0.90;101365.00;;;;4795912;29;108324;-70
2023/01/22 02:27:14;;;;;;;3.17;1.60;;;1.10;99.90;0.90;101365.00;;;;4782033;29;87834;-70
2023/01/22 02:29:40;;;;;;;4.40;2.63;;;1.20;99.90;0.90;101366.00;;;;4781076;29;111000;-69
2023/01/22 02:32:06;;;;;;;2.63;1.97;;;1.20;99.90;0.90;101378.00;;;;4782482;29;108753;-69
2023/01/22 02:34:32;;;;;;;3.37;1.90;;;1.20;99.90;0.90;101379.00;;;;4780576;29;118370;-70
2023/01/22 02:36:58;;;;;;;2.47;1.80;;;1.20;99.90;0.90;101379.00;;;;4778347;29;116928;-69
2023/01/22 02:39:23;;;;;;;3.17;2.10;;;1.30;99.90;0.90;101372.00;;;;4781960;29;110569;-70
2023/01/22 02:41:50;;;;;;;7.30;1.97;;;1.20;99.90;0.90;101374.00;;;;4782427;29;108814;-70
2023/01/22 02:44:15;;;;;;;2.80;2.17;;;1.30;99.90;0.90;101371.00;;;;4782977;29;112003;-70
2023/01/22 02:46:41;;;;;;;2.70;2.13;;;1.20;99.90;0.90;101363.00;;;;4782965;29;117717;-69
2023/01/22 02:49:07;;;;;;;2.83;2.33;;;1.20;99.90;1.00;101363.00;;;;4782721;29;109860;-69
2023/01/22 02:51:32;;;;;;;2.40;2.20;;;1.20;99.90;0.90;101379.00;;;;4783401;29;108680;-70
2023/01/22 02:53:58;;;;;;;2.03;1.83;;;1.30;99.90;0.90;101375.00;;;;4782903;29;89466;-70
2023/01/22 02:56:24;;;;;;;3.07;1.90;;;1.30;99.90;0.90;101368.00;;;;4782030;29;119817;-72
2023/01/22 02:58:50;;;;;;;3.40;2.70;;;1.20;99.90;0.90;101371.00;;;;4778436;29;87826;-70
2023/01/22 03:01:23;;;;;;;2.13;1.93;;;1.20;99.90;0.90;101372.00;;;;4784052;29;108523;-71
2023/01/22 03:03:55;;;;;;;5.37;2.43;;;1.10;99.90;0.90;101370.00;;;;4780111;29;94677;-71
2023/01/22 03:06:25;;;;;;;2.80;2.30;;;1.30;99.90;0.90;101378.00;;;;4764204;29;88978;-70
2023/01/22 03:08:57;;;;;;;3.77;2.30;;;1.30;99.90;0.90;101377.00;;;;4781962;29;87761;-70
2023/01/22 03:11:26;;;;;;;2.83;2.60;;;1.20;99.90;0.90;101389.00;;;;4784311;29;87146;-72
2023/01/22 03:22:08;;;;;;;3.03;2.17;;;1.30;99.90;0.90;101388.00;;;;4780782;29;87958;-69
2023/01/22 03:24:34;;;;;;;5.00;2.47;;;1.20;99.90;0.90;101381.00;;;;4782011;29;89426;-69
2023/01/22 03:27:01;;;;;;;2.27;1.83;;;1.30;99.90;0.90;101382.00;;;;4782051;29;118004;-69
2023/01/22 03:29:26;;;;;;;2.63;2.40;;;1.40;99.90;0.90;101383.00;;;;4781584;29;87800;-69
2023/01/22 03:31:52;;;;;;;4.77;2.40;;;1.30;99.90;0.90;101394.00;;;;4783718;29;106797;-69
2023/01/22 03:34:20;;;;;;;3.37;2.43;;;1.30;99.90;1.00;101396.00;;;;4795133;29;111136;-71
2023/01/22 03:36:46;;;;;;;5.33;3.10;;;1.30;99.90;1.00;101394.00;;;;4783997;29;107676;-69
2023/01/22 03:39:12;;;;;;;4.17;2.53;;;1.30;99.90;1.00;101390.00;;;;4780496;29;109384;-71
2023/01/22 03:41:38;;;;;;;3.90;2.80;;;1.20;99.90;1.00;101395.00;;;;4780431;29;108987;-71
2023/01/22 03:44:05;;;;;;;2.90;1.77;;;1.30;99.90;1.00;101392.00;;;;4780803;29;117983;-72
2023/01/22 03:46:33;;;;;;;5.47;2.57;;;1.30;99.90;1.00;101392.00;;;;4781707;29;88150;-69
2023/01/22 03:48:59;;;;;;;2.67;2.27;;;1.40;99.90;1.00;101403.00;;;;4779167;29;87698;-71
2023/01/22 03:51:24;;;;;;;4.17;2.13;;;1.50;99.90;1.00;101394.00;;;;4781432;29;108941;-72
2023/01/22 03:53:50;;;;;;;4.57;2.43;;;1.20;99.90;1.00;101400.00;;;;4783614;29;88328;-70
2023/01/22 03:56:20;;;;;;;2.93;2.23;;;1.30;99.90;1.00;101394.00;;;;4781069;29;101093;-70
2023/01/22 03:58:47;;;;;;;4.17;2.70;;;1.30;99.90;1.00;101403.00;;;;4782426;29;88883;-69
2023/01/22 04:01:16;;;;;;;3.70;3.00;;;1.30;99.90;1.00;101399.00;;;;4780420;29;101064;-71
2023/01/22 04:03:42;;;;;;;3.60;2.50;;;1.20;99.90;1.00;101404.00;;;;4792195;29;93232;-69
2023/01/22 04:06:10;;;;;;;2.50;2.03;;;1.20;99.90;0.90;101405.00;;;;4778142;29;116408;-69
2023/01/22 04:08:38;;;;;;;5.83;3.30;;;1.30;99.90;1.00;101415.00;;;;4782596;29;89065;-69
2023/01/22 04:11:05;;;;;;;5.00;2.53;;;1.30;99.90;1.00;101415.00;;;;4782406;29;89270;-69
2023/01/22 04:13:33;;;;;;;6.40;3.40;;;1.20;99.90;1.00;101427.00;;;;4780991;29;87999;-69
2023/01/22 04:15:59;;;;;;;3.83;2.30;;;1.50;99.90;1.00;101429.00;;;;4781092;29;88801;-68
2023/01/22 04:18:25;;;;;;;4.13;2.70;;;1.30;99.90;1.00;101421.00;;;;4782585;29;87968;-69
2023/01/22 04:20:51;;;;;;;4.23;2.90;;;1.20;99.90;1.00;101432.00;;;;4783538;29;89635;-68
2023/01/22 04:23:18;;;;;;;5.87;2.87;;;1.30;99.90;1.00;101423.00;;;;4777929;29;90615;-69
2023/01/22 04:25:45;;;;;;;6.40;2.97;;;1.40;99.90;1.00;101437.00;;;;4779909;29;88683;-70
2023/01/22 04:28:13;;;;;;;3.57;2.67;;;1.30;99.90;1.00;101437.00;;;;4782409;29;87663;-70
2023/01/22 04:30:40;;;;;;;4.47;2.80;;;1.30;99.90;1.00;101434.00;;;;4781987;29;88981;-71
2023/01/22 04:33:05;;;;;;;6.37;3.20;;;0.50;99.90;1.00;101443.00;;;;4780443;29;100997;-70
2023/01/22 04:35:32;;;;;;;4.50;2.97;;;1.30;99.90;1.00;101435.00;;;;4780545;29;117417;-68
2023/01/22 04:37:58;;;;;;;3.63;3.13;;;1.30;99.90;1.00;101444.00;;;;4779039;29;88815;-69
2023/01/22 04:40:24;;;;;;;3.80;2.93;;;1.30;99.90;1.00;101438.00;;;;4778684;29;108495;-68
2023/01/22 04:42:50;;;;;;;5.53;3.73;;;1.30;99.90;1.00;101437.00;;;;4779102;29;88573;-69
2023/01/22 04:45:16;;;;;;;5.33;3.67;;;1.30;99.90;1.00;101433.00;;;;4779883;29;117461;-69
2023/01/22 04:47:46;;;;;;;3.40;3.10;;;1.30;99.90;1.00;101446.00;;;;4782552;29;87691;-70
2023/01/22 04:50:17;;;;;;;5.53;3.10;;;1.40;99.90;1.00;101438.00;;;;4781758;29;86877;-70
2023/01/22 04:52:43;;;;;;;2.23;2.03;;;1.30;99.90;1.00;101435.00;;;;4777671;29;89042;-69
2023/01/22 04:55:10;;;;;;;4.43;3.13;;;1.30;99.90;1.00;101444.00;;;;4783849;29;99858;-68
2023/01/22 04:57:35;;;;;;;5.63;2.53;;;1.30;99.90;1.00;101440.00;;;;4783087;29;89085;-69
2023/01/22 05:00:01;;;;;;;4.60;3.03;;;1.30;99.90;1.00;101447.00;;;;4783646;29;103593;-71
2023/01/22 05:02:26;;;;;;;6.40;3.37;;;1.30;99.90;1.00;101447.00;;;;4777808;29;103623;-69
2023/01/22 05:04:52;;;;;;;3.30;2.87;;;1.30;99.90;1.00;101451.00;;;;4780366;29;117696;-71
2023/01/22 05:07:18;;;;;;;7.10;3.20;;;1.30;99.90;1.00;101450.00;;;;4779114;29;87906;-69
2023/01/22 05:09:43;;;;;;;3.27;2.97;;;1.30;99.90;1.00;101447.00;;;;4779269;29;100732;-70
2023/01/22 05:12:09;;;;;;;4.23;3.03;;;1.30;99.90;1.00;101454.00;;;;4780658;29;117188;-69
2023/01/22 05:14:35;;;;;;;3.73;2.50;;;1.20;99.90;1.00;101452.00;;;;4780246;29;117729;-69
2023/01/22 05:17:00;;;;;;;3.27;2.60;;;1.30;99.90;1.00;101457.00;;;;4777816;29;109498;-69
2023/01/22 05:19:26;;;;;;;3.63;3.00;;;1.30;99.90;1.00;101463.00;;;;4780242;29;108205;-70
2023/01/22 05:21:52;;;;;;;4.43;3.30;;;1.30;99.90;1.00;101456.00;;;;4780074;29;118913;-69
2023/01/22 05:24:17;;;;;;;6.67;3.83;;;1.30;99.90;1.00;101464.00;;;;4781186;29;89663;-68
2023/01/22 05:26:44;;;;;;;8.37;3.37;;;1.30;99.90;1.00;101459.00;;;;4782482;29;110580;-68
2023/01/22 05:29:09;;;;;;;7.77;3.53;;;1.30;99.90;1.00;101453.00;;;;4779965;29;87779;-68
2023/01/22 05:31:35;;;;;;;4.47;2.73;;;1.30;99.90;1.00;101471.00;;;;4791584;29;117011;-68
2023/01/22 05:34:02;;;;;;;5.53;3.43;;;1.30;99.90;1.00;101473.00;;;;4780940;29;113944;-68
2023/01/22 05:36:28;;;;;;;4.83;3.67;;;1.20;99.90;1.00;101469.00;;;;4780283;29;97766;-69
2023/01/22 05:38:54;;;;;;;3.83;2.33;;;1.30;99.90;1.00;101470.00;;;;4763953;29;101032;-69
2023/01/22 05:41:19;;;;;;;4.57;3.23;;;1.30;99.90;1.00;101463.00;;;;4781026;29;89209;-68
2023/01/22 05:43:45;;;;;;;6.33;3.70;;;1.10;99.90;1.00;101472.00;;;;4779818;29;116853;-69
2023/01/22 05:46:11;;;;;;;5.67;3.37;;;1.30;99.90;1.00;101477.00;;;;4779581;29;111335;-68
2023/01/22 05:48:36;;;;;;;4.40;3.00;;;1.30;99.90;1.00;101477.00;;;;4780780;29;109176;-68
2023/01/22 05:51:05;;;;;;;6.50;3.37;;;1.30;99.90;1.00;101476.00;;;;4780941;29;117733;-68
2023/01/22 05:53:31;;;;;;;4.60;3.57;;;1.30;99.90;1.00;101484.00;;;;4783971;29;89540;-69
2023/01/22 05:56:05;;;;;;;7.07;3.70;;;1.20;99.90;1.00;101484.00;;;;4785344;29;88096;-68
2023/01/22 05:58:31;;;;;;;7.17;3.63;;;1.40;99.90;1.00;101486.00;;;;4784482;29;88071;-67
2023/01/22 06:00:58;;;;;;;4.20;3.30;;;1.30;99.90;1.00;101485.00;;;;4795052;29;105098;-67
2023/01/22 06:03:24;;;;;;;9.27;3.77;;;1.30;99.90;1.00;101489.00;;;;4783929;29;95126;-68
2023/01/22 06:06:01;;;;;;;6.87;4.27;;;1.30;99.90;1.00;101484.00;;;;4783328;29;89068;-68
2023/01/22 06:08:28;;;;;;;5.40;3.77;;;1.20;99.90;1.00;101486.00;;;;4785212;29;87906;-68
2023/01/22 06:11:03;;;;;;;8.67;4.77;;;1.30;99.90;0.90;101491.00;;;;4782240;29;102990;-67
2023/01/22 06:13:30;;;;;;;4.57;3.37;;;1.20;99.90;0.90;101483.00;;;;4781881;29;88017;-68
2023/01/22 06:15:56;;;;;;;6.27;4.10;;;1.30;99.90;0.90;101492.00;;;;4784165;29;101110;-68
2023/01/22 06:18:23;;;;;;;3.53;2.67;;;1.30;99.90;0.90;101491.00;;;;4783142;29;88120;-68
2023/01/22 06:20:50;;;;;;;5.47;3.77;;;1.30;99.90;0.90;101487.00;;;;4783033;29;89042;-67
2023/01/22 06:23:16;;;;;;;7.90;4.67;;;1.30;99.90;1.00;101501.00;;;;4780695;29;105931;-67
2023/01/22 06:25:42;;;;;;;6.13;4.13;;;1.30;99.90;1.00;101502.00;;;;4782553;29;108991;-68
2023/01/22 06:28:07;;;;;;;4.83;3.50;;;1.30;99.90;1.00;101503.00;;;;4783537;29;97761;-68
2023/01/22 06:30:34;;;;;;;10.77;4.97;;;1.20;99.90;1.00;101501.00;;;;4783553;29;99981;-68
2023/01/22 06:33:00;;;;;;;4.57;3.10;;;1.30;99.90;1.00;101512.00;;;;4785312;29;92641;-69
2023/01/22 06:35:25;;;;;;;7.13;4.47;;;1.20;99.90;1.00;101512.00;;;;4783450;29;108330;-69
2023/01/22 06:37:51;;;;;;;7.80;3.63;;;1.30;99.90;1.00;101511.00;;;;4779258;29;109630;-68
2023/01/22 06:40:17;;;;;;;6.80;4.83;;;1.30;99.90;1.00;101513.00;;;;4777729;29;107941;-68
2023/01/22 06:42:43;;;;;;;4.47;3.93;;;1.40;99.90;1.00;101518.00;;;;4779200;29;105142;-67
2023/01/22 06:45:09;;;;;;;7.20;4.13;;;1.30;99.90;1.00;101526.00;;;;4779533;29;92242;-67
2023/01/22 06:47:35;;;;;;;5.87;4.23;;;1.30;99.90;1.00;101536.00;;;;4779241;29;100442;-68
2023/01/22 06:50:01;;;;;;;5.17;4.60;;;1.30;99.90;1.00;101529.00;;;;4779751;29;104886;-65
2023/01/22 06:52:26;;;;;;;7.50;5.93;;;1.30;99.90;1.00;101533.00;;;;4782263;29;116565;-69
2023/01/22 06:54:52;;;;;;;19.10;7.30;;;1.20;99.90;1.00;101544.00;;;;4779209;29;110081;-67
2023/01/22 06:57:17;;;;;;;10.67;6.10;;;1.40;99.90;1.00;101544.00;;;;4779735;29;108678;-66
2023/01/22 06:59:43;;;;;;;5.90;5.30;;;1.30;99.90;1.00;101540.00;;;;4779327;29;119302;-68
2023/01/22 07:02:17;;;;;;;6.40;4.40;;;1.30;99.90;1.00;101550.00;;;;4780774;29;89117;-68
2023/01/22 07:04:43;;;;;;;9.90;4.87;;;1.30;99.90;1.00;101555.00;;;;4793688;29;88082;-68
2023/01/22 07:07:09;;;;;;;4.80;4.27;;;1.30;99.90;1.00;101560.00;;;;4779939;29;91175;-68
2023/01/22 07:09:34;;;;;;;6.80;4.63;;;1.40;99.90;1.10;101556.00;;;;4777478;29;104215;-70
2023/01/22 07:12:00;;;;;;;5.33;4.43;;;1.60;99.90;1.10;101569.00;;;;4779482;29;118017;-70
2023/01/22 07:14:27;;;;;;;5.97;5.37;;;1.30;99.90;1.10;101561.00;;;;4779297;29;87966;-68
2023/01/22 07:16:53;;;;;;;6.73;4.33;;;1.40;99.90;1.10;101561.00;;;;4779324;29;87212;-68
2023/01/22 07:19:18;;;;;;;5.80;3.80;;;1.40;99.90;1.10;101567.00;;;;4778348;29;117644;-70
2023/01/22 07:21:44;;;;;;;4.97;4.27;;;1.40;99.90;1.10;101567.00;;;;4762497;29;117069;-69
2023/01/22 07:24:10;;;;;;;5.73;4.77;;;1.40;99.90;1.20;101571.00;;;;4779718;29;103192;-69
2023/01/22 07:26:37;;;;;;;6.87;4.83;;;1.40;99.90;1.20;101565.00;;;;4780127;29;108334;-69
2023/01/22 07:29:04;;;;;;;10.10;5.30;;;1.50;99.90;1.20;101568.00;;;;4777867;29;88644;-69
2023/01/22 07:31:30;;;;;;;9.07;4.23;;;1.60;99.90;1.20;101583.00;;;;4778265;29;105604;-70
2023/01/22 07:33:55;;;;;;;4.17;3.57;;;1.50;99.90;1.20;101580.00;;;;4779539;29;87820;-70
2023/01/22 07:36:21;;;;;;;5.57;4.37;;;1.50;99.90;1.20;101587.00;;;;4778482;29;108543;-68
2023/01/22 07:38:47;;;;;;;8.00;4.77;;;1.60;99.90;1.30;101578.00;;;;4779068;29;89231;-69
2023/01/22 07:41:13;;;;;;;5.03;3.87;;;1.60;99.90;1.20;101586.00;;;;4780694;29;88701;-69
2023/01/22 07:43:39;;;;;;;5.33;4.30;;;2.50;99.90;1.20;101579.00;;;;4779587;29;111035;-70
2023/01/22 07:46:06;;;;;;;6.67;4.83;;;1.50;99.90;1.20;101590.00;;;;4778937;29;108812;-70
2023/01/22 07:48:33;;;;;;;8.20;4.30;;;1.50;99.90;1.30;101596.00;;;;4791007;29;89126;-69
2023/01/22 07:51:03;;;;;;;6.90;4.37;;;1.60;99.90;1.20;101585.00;;;;4775942;29;91158;-70
2023/01/22 07:53:29;;;;;;;6.43;4.20;;;1.50;99.90;1.30;101593.00;;;;4789588;29;94691;-70
2023/01/22 07:55:55;;;;;;;6.27;4.60;;;1.60;99.90;1.20;101594.00;;;;4778198;29;96077;-70
2023/01/22 07:58:21;;;;;;;6.83;3.93;;;1.60;99.90;1.20;101604.00;;;;4778115;29;88206;-71
2023/01/22 08:00:47;;;;;;;7.63;4.50;;;1.50;99.90;1.20;101613.00;;;;4786560;29;94709;-71
2023/01/22 08:03:14;;;;;;;7.90;4.60;;;1.60;99.90;1.20;101601.00;;;;4775346;29;88010;-72
2023/01/22 08:05:41;;;;;;;14.93;7.23;;;1.60;99.90;1.30;101598.00;;;;4778551;29;87193;-72
2023/01/22 08:08:14;;;;;;;39.07;26.67;;;1.60;99.90;1.20;101599.00;;;;4776785;29;108586;-70
2023/01/22 08:10:40;;;;;;;9.13;7.67;;;2.20;99.90;1.20;101605.00;;;;4779194;29;87771;-71
2023/01/22 08:13:06;;;;;;;11.10;7.53;;;2.10;99.90;1.30;101616.00;;;;4777983;29;88978;-72
2023/01/22 08:15:32;;;;;;;10.10;6.37;;;1.60;99.90;1.20;101631.00;;;;4774731;29;108758;-69
2023/01/22 08:17:57;;;;;;;7.30;5.40;;;1.90;99.90;1.20;101624.00;;;;4780356;29;88899;-73
2023/01/22 08:20:24;;;;;;;12.03;8.53;;;1.60;99.90;1.20;101631.00;;;;4789857;29;116655;-73
2023/01/22 08:22:49;;;;;;;9.70;6.47;;;1.50;99.90;1.20;101632.00;;;;4780098;29;104769;-72
2023/01/22 08:25:15;;;;;;;7.07;5.47;;;1.60;99.90;1.30;101641.00;;;;4778858;29;99350;-72
2023/01/22 08:27:41;;;;;;;18.23;14.97;;;1.50;99.90;1.30;101640.00;;;;4779423;29;100829;-72
2023/01/22 08:30:10;;;;;;;26.27;22.03;;;1.70;99.90;1.30;101644.00;;;;4776707;29;117719;-74
2023/01/22 08:32:37;;;;;;;17.67;9.23;;;1.60;99.90;1.30;101649.00;;;;4779126;29;87903;-72
2023/01/22 08:35:04;;;;;;;12.70;11.40;;;1.60;99.90;1.30;101656.00;;;;4778952;29;89424;-74
2023/01/22 08:37:29;;;;;;;11.90;10.70;;;1.60;99.90;1.30;101642.00;;;;4777502;29;90157;-73
2023/01/22 08:39:55;;;;;;;6.83;5.50;;;1.70;99.90;1.30;101651.00;;;;4774493;29;117875;-72
2023/01/22 08:42:21;;;;;;;6.23;5.63;;;2.20;99.90;1.40;101654.00;;;;4777297;29;87807;-72
2023/01/22 08:44:46;;;;;;;5.53;4.90;;;1.60;99.90;1.40;101665.00;;;;4792529;29;109465;-72
2023/01/22 08:47:12;;;;;;;8.83;5.03;;;1.70;99.90;1.40;101662.00;;;;4773542;29;117129;-74
2023/01/22 08:49:38;;;;;;;21.30;17.90;;;1.60;99.90;1.40;101654.00;;;;4778495;29;87982;-71
2023/01/22 08:52:04;;;;;;;13.80;9.90;;;1.70;99.90;1.40;101656.00;;;;4774097;29;109438;-73
2023/01/22 08:54:29;;;;;;;20.53;15.60;;;1.70;99.90;1.40;101659.00;;;;4775483;29;91856;-72
2023/01/22 08:56:55;;;;;;;11.17;6.63;;;1.70;99.90;1.40;101673.00;;;;4776547;29;116651;-71
2023/01/22 08:59:21;;;;;;;9.40;5.63;;;1.80;99.90;1.50;101667.00;;;;4774870;29;117336;-70
2023/01/22 09:01:46;;;;;;;9.13;5.33;;;1.80;99.90;1.50;101671.00;;;;4776061;29;110739;-71
2023/01/22 09:04:12;;;;;;;7.00;5.70;;;1.70;99.90;1.50;101675.00;;;;4778171;29;88101;-71
2023/01/22 09:06:38;;;;;;;9.87;8.87;;;1.70;99.90;1.50;101681.00;;;;4777820;29;117742;-70
2023/01/22 09:09:05;;;;;;;6.90;5.27;;;1.80;99.90;1.50;101682.00;;;;4777848;29;88947;-71
2023/01/22 09:11:31;;;;;;;6.33;4.87;;;1.80;99.90;1.50;101678.00;;;;4780214;29;87800;-73
2023/01/22 09:13:58;;;;;;;7.80;5.13;;;1.90;99.90;1.60;101680.00;;;;4777043;29;88298;-70
2023/01/22 09:16:25;;;;;;;8.57;5.87;;;1.90;99.90;1.60;101692.00;;;;4790388;29;87803;-71
2023/01/22 09:18:52;;;;;;;8.97;4.77;;;2.00;99.90;1.60;101691.00;;;;4775083;29;97039;-70
2023/01/22 09:21:18;;;;;;;11.87;7.60;;;1.90;99.90;1.70;101688.00;;;;4776325;29;104300;-71
2023/01/22 09:23:43;;;;;;;29.70;20.00;;;2.00;99.90;1.70;101692.00;;;;4778201;29;98217;-71
2023/01/22 09:26:09;;;;;;;26.60;17.73;;;2.00;99.90;1.70;101696.00;;;;4776271;29;118948;-73
2023/01/22 09:28:35;;;;;;;16.13;13.90;;;3.00;99.90;1.70;101680.00;;;;4776560;29;108918;-70
2023/01/22 09:31:01;;;;;;;10.03;8.83;;;2.00;99.90;1.70;101686.00;;;;4780756;29;102081;-72
2023/01/22 09:33:27;;;;;;;12.80;7.67;;;2.00;99.90;1.70;101685.00;;;;4792781;29;107986;-72
2023/01/22 09:35:52;;;;;;;48.97;34.10;;;2.00;99.90;1.70;101695.00;;;;4779274;29;104257;-70
2023/01/22 09:38:18;;;;;;;146.93;94.23;;;2.10;99.90;1.70;101701.00;;;;4776944;29;117182;-71
2023/01/22 09:40:57;;;;;;;39.23;29.40;;;2.00;99.90;1.70;101696.00;;;;4779407;29;88051;-72
2023/01/22 09:43:44;;;;;;;15.90;12.40;;;2.10;99.90;1.70;101707.00;;;;4776815;29;87310;-68
2023/01/22 09:46:42;;;;;;;13.03;8.30;;;2.00;99.90;1.70;101709.00;;;;4762650;29;90398;-69
2023/01/22 09:49:19;;;;;;;12.70;9.90;;;2.00;99.90;1.70;101717.00;;;;4783248;29;87956;-69
2023/01/22 09:51:52;;;;;;;8.40;7.60;;;2.00;99.90;1.70;101707.00;;;;4780340;29;105714;-69
2023/01/22 09:54:17;;;;;;;10.00;6.47;;;2.00;99.90;1.70;101688.00;;;;4778995;29;102161;-70
2023/01/22 09:56:50;;;;;;;10.80;7.60;;;2.00;99.90;1.70;101691.00;;;;4780353;29;101247;-69
2023/01/22 09:59:29;;;;;;;8.90;7.80;;;2.10;99.90;1.80;101688.00;;;;4773556;29;108416;-69
2023/01/22 10:01:59;;;;;;;26.53;15.80;;;2.00;99.90;1.80;101689.00;;;;4795856;29;87817;-67
2023/01/22 10:04:35;;;;;;;14.33;9.30;;;2.00;99.90;1.80;101687.00;;;;4790621;29;96505;-68
2023/01/22 10:07:05;;;;;;;7.97;7.03;;;2.10;99.90;1.90;101692.00;;;;4779145;29;98998;-69
2023/01/22 10:09:32;;;;;;;10.10;7.57;;;2.20;99.90;1.90;101694.00;;;;4779100;29;88501;-69
2023/01/22 10:12:04;;;;;;;10.47;6.40;;;2.20;99.90;2.00;101693.00;;;;4779283;29;88248;-66
2023/01/22 10:14:30;;;;;;;7.77;6.57;;;2.20;99.90;2.00;101710.00;;;;4793773;29;87782;-68
2023/01/22 10:17:00;;;;;;;32.90;21.27;;;2.30;99.90;2.00;101705.00;;;;4793149;29;89974;-66
2023/01/22 10:19:41;;;;;;;153.13;93.83;;;2.40;99.90;2.00;101696.00;;;;4780036;29;89709;-66
2023/01/22 10:22:18;;;;;;;50.77;31.83;;;2.30;99.90;2.00;101707.00;;;;4777471;29;87882;-68
2023/01/22 10:24:44;;;;;;;32.43;18.10;;;2.30;99.90;2.00;101703.00;;;;4780137;29;88018;-67
2023/01/22 10:27:16;;;;;;;15.30;11.23;;;2.20;99.90;2.00;101705.00;;;;4777395;29;117310;-67
2023/01/22 10:29:54;;;;;;;13.37;9.60;;;2.30;99.90;2.00;101700.00;;;;4779407;29;87901;-67
2023/01/22 10:32:26;;;;;;;27.23;24.60;;;2.20;99.90;2.00;101702.00;;;;4793563;29;89596;-67
2023/01/22 10:35:10;;;;;;;9.40;7.20;;;2.30;99.90;2.00;101714.00;;;;4776940;29;98318;-67
2023/01/22 10:37:48;;;;;;;15.63;14.03;;;2.40;99.90;1.90;101713.00;;;;4779956;29;88250;-69
2023/01/22 10:40:36;;;;;;;10.77;8.33;;;2.20;99.90;1.90;101709.00;;;;4779289;29;89180;-67
2023/01/22 10:43:15;;;;;;;11.40;5.83;;;2.30;99.90;1.90;101714.00;;;;4775682;29;88952;-67
2023/01/22 10:45:55;;;;;;;10.33;6.90;;;2.10;99.90;1.90;101707.00;;;;4776208;29;87889;-66
2023/01/22 10:48:21;;;;;;;9.60;6.40;;;2.20;99.90;1.90;101712.00;;;;4777709;29;92747;-68
2023/01/22 10:51:12;;;;;;;13.73;9.33;;;2.20;99.90;1.90;101717.00;;;;4780945;29;88716;-66
2023/01/22 10:53:51;;;;;;;8.83;6.63;;;2.30;99.90;1.90;101722.00;;;;4757812;29;98939;-67
2023/01/22 10:56:43;;;;;;;12.93;8.20;;;2.10;99.90;1.90;101719.00;;;;4789166;29;88171;-68
2023/01/22 10:59:28;;;;;;;11.20;6.00;;;2.20;99.90;1.80;101728.00;;;;4789018;29;115605;-66
2023/01/22 11:02:00;;;;;;;9.97;5.77;;;2.20;99.90;1.80;101725.00;;;;4761770;29;90392;-67
2023/01/22 11:04:30;;;;;;;13.10;8.20;;;2.20;99.90;1.80;101715.00;;;;4776355;29;88059;-67
2023/01/22 11:07:28;;;;;;;10.90;7.77;;;2.10;99.90;1.70;101719.00;;;;4777982;29;87749;-69
2023/01/22 11:10:11;;;;;;;9.90;5.93;;;2.10;99.90;1.80;101713.00;;;;4792174;29;114513;-68